createdAt,value
2022-11-19T00:01:38.523Z,6.48
2022-11-19T00:04:09.447Z,6.55
2022-11-19T00:06:40.957Z,6.42
2022-11-19T00:09:14.923Z,6.60
2022-11-19T00:12:00.915Z,6.55
2022-11-19T00:14:32.251Z,6.53
2022-11-19T00:16:59.874Z,6.64
2022-11-19T00:19:28.026Z,6.63
2022-11-19T00:21:55.756Z,6.69
2022-11-19T00:24:24.730Z,6.71
2022-11-19T00:26:52.438Z,6.68
2022-11-19T00:29:22.767Z,6.59
2022-11-19T00:31:50.734Z,6.77
2022-11-19T00:34:18.463Z,6.75
2022-11-19T00:36:46.142Z,6.75
2022-11-19T00:39:13.926Z,6.73
2022-11-19T00:41:42.960Z,6.79
2022-11-19T00:44:10.621Z,6.75
2022-11-19T00:46:38.632Z,6.78
2022-11-19T00:49:06.345Z,6.77
2022-11-19T00:51:34.171Z,6.77
2022-11-19T00:54:01.853Z,6.72
2022-11-19T00:56:29.499Z,6.77
2022-11-19T00:58:58.988Z,6.68
2022-11-19T01:01:26.937Z,6.74
2022-11-19T01:03:54.838Z,6.71
2022-11-19T01:06:24.411Z,6.70
2022-11-19T01:08:53.003Z,6.74
2022-11-19T01:11:23.598Z,6.77
2022-11-19T01:13:51.334Z,6.74
2022-11-19T01:16:21.811Z,6.74
2022-11-19T01:18:50.611Z,6.78
2022-11-19T01:21:19.341Z,6.74
2022-11-19T01:23:47.401Z,6.75
2022-11-19T01:26:15.606Z,6.77
2022-11-19T01:28:44.538Z,6.68
2022-11-19T01:31:14.764Z,6.72
2022-11-19T01:33:44.375Z,6.76
2022-11-19T01:36:14.672Z,6.62
2022-11-19T01:38:42.999Z,6.68
2022-11-19T01:41:11.579Z,6.86
2022-11-19T01:43:48.206Z,6.88
2022-11-19T01:46:20.195Z,6.90
2022-11-19T01:48:52.776Z,6.72
2022-11-19T01:51:23.252Z,6.71
2022-11-19T01:53:51.445Z,6.73
2022-11-19T01:56:19.617Z,6.75
2022-11-19T01:58:48.958Z,6.77
2022-11-19T02:01:17.337Z,6.96
2022-11-19T02:03:44.950Z,6.93
2022-11-19T02:06:13.883Z,6.58
2022-11-19T02:08:42.893Z,6.36
2022-11-19T02:11:28.954Z,6.64
2022-11-19T02:14:04.511Z,6.67
2022-11-19T02:16:40.052Z,6.30
2022-11-19T02:19:15.763Z,6.52
2022-11-19T02:21:51.198Z,6.39
2022-11-19T02:24:34.298Z,6.38
2022-11-19T02:27:24.006Z,6.44
2022-11-19T02:30:04.163Z,6.40
2022-11-19T02:32:34.418Z,6.34
2022-11-19T02:35:07.816Z,6.31
2022-11-19T02:37:41.043Z,6.31
2022-11-19T02:40:12.444Z,6.19
2022-11-19T02:42:44.587Z,6.08
2022-11-19T02:45:16.334Z,6.06
2022-11-19T02:47:48.042Z,5.72
2022-11-19T02:50:17.879Z,5.77
2022-11-19T02:52:46.609Z,5.64
2022-11-19T02:55:15.188Z,5.53
2022-11-19T02:57:43.761Z,5.71
2022-11-19T03:00:31.900Z,5.56
2022-11-19T03:03:27.052Z,5.44
2022-11-19T03:05:58.477Z,5.15
2022-11-19T03:08:26.109Z,5.41
2022-11-19T03:11:01.146Z,5.06
2022-11-19T03:13:51.418Z,5.03
2022-11-19T03:16:43.558Z,4.83
2022-11-19T03:19:36.313Z,4.58
2022-11-19T03:22:08.232Z,4.72
2022-11-19T03:24:37.539Z,4.63
2022-11-19T03:27:10.122Z,4.60
2022-11-19T03:29:41.398Z,4.58
2022-11-19T03:32:14.306Z,4.60
2022-11-19T03:34:42.801Z,4.47
2022-11-19T03:37:10.876Z,4.27
2022-11-19T03:39:39.563Z,4.12
2022-11-19T03:42:08.213Z,4.15
2022-11-19T03:44:39.984Z,4.08
2022-11-19T03:47:11.217Z,4.08
2022-11-19T03:49:41.557Z,4.07
2022-11-19T03:52:11.677Z,4.06
2022-11-19T03:54:39.885Z,3.97
2022-11-19T03:57:08.502Z,3.96
2022-11-19T03:59:36.528Z,3.86
2022-11-19T04:02:06.792Z,3.70
2022-11-19T04:04:38.574Z,3.75
2022-11-19T04:07:07.873Z,3.74
2022-11-19T04:09:35.657Z,3.70
2022-11-19T04:12:03.425Z,3.68
2022-11-19T04:14:31.126Z,3.78
2022-11-19T04:16:58.833Z,3.65
2022-11-19T04:19:26.600Z,3.75
2022-11-19T04:21:55.594Z,3.50
2022-11-19T04:24:23.285Z,3.47
2022-11-19T04:26:50.994Z,3.56
2022-11-19T04:29:19.023Z,3.46
2022-11-19T04:31:46.841Z,3.63
2022-11-19T04:34:14.539Z,3.45
2022-11-19T04:36:42.390Z,3.52
2022-11-19T04:39:12.458Z,3.49
2022-11-19T04:41:41.056Z,3.49
2022-11-19T04:44:08.709Z,3.36
2022-11-19T04:46:36.379Z,3.58
2022-11-19T04:49:04.126Z,3.42
2022-11-19T04:51:31.784Z,3.26
2022-11-19T04:53:59.353Z,3.17
2022-11-19T04:56:28.359Z,3.20
2022-11-19T04:58:55.917Z,3.17
2022-11-19T05:01:23.577Z,2.97
2022-11-19T05:03:51.198Z,2.75
2022-11-19T05:06:18.811Z,2.78
2022-11-19T05:08:46.470Z,2.90
2022-11-19T05:11:14.409Z,2.80
2022-11-19T05:13:43.400Z,2.87
2022-11-19T05:16:11.014Z,2.70
2022-11-19T05:18:38.656Z,2.88
2022-11-19T05:21:06.253Z,2.91
2022-11-19T05:23:33.877Z,2.67
2022-11-19T05:26:01.474Z,2.70
2022-11-19T05:28:38.575Z,2.70
2022-11-19T05:31:08.936Z,2.64
2022-11-19T05:33:36.628Z,2.70
2022-11-19T05:36:04.898Z,2.70
2022-11-19T05:38:32.553Z,2.63
2022-11-19T05:41:00.280Z,2.75
2022-11-19T05:43:27.960Z,2.71
2022-11-19T05:45:55.717Z,2.51
2022-11-19T05:48:24.660Z,2.43
2022-11-19T05:50:52.529Z,2.38
2022-11-19T05:53:20.161Z,2.42
2022-11-19T05:55:47.930Z,2.41
2022-11-19T05:58:15.570Z,2.39
2022-11-19T06:00:43.213Z,2.35
2022-11-19T06:03:11.085Z,2.44
2022-11-19T06:05:40.843Z,2.32
2022-11-19T06:08:08.692Z,2.45
2022-11-19T06:10:36.315Z,2.35
2022-11-19T06:13:04.233Z,2.24
2022-11-19T06:15:31.885Z,2.38
2022-11-19T06:17:59.539Z,2.20
2022-11-19T06:20:27.182Z,2.11
2022-11-19T06:22:56.155Z,2.13
2022-11-19T06:25:24.372Z,2.22
2022-11-19T06:27:52.050Z,2.20
2022-11-19T06:30:19.739Z,2.27
2022-11-19T06:32:47.430Z,2.12
2022-11-19T06:35:15.259Z,2.08
2022-11-19T06:37:42.880Z,1.88
2022-11-19T06:40:13.623Z,2.13
2022-11-19T06:42:41.272Z,2.10
2022-11-19T06:45:11.231Z,1.96
2022-11-19T06:47:40.256Z,1.73
2022-11-19T06:50:09.455Z,1.85
2022-11-19T06:52:37.089Z,1.60
2022-11-19T06:55:05.453Z,1.84
2022-11-19T06:57:34.518Z,1.68
2022-11-19T07:00:02.213Z,1.66
2022-11-19T07:02:29.883Z,1.60
2022-11-19T07:04:57.562Z,1.61
2022-11-19T07:07:25.254Z,1.57
2022-11-19T07:09:52.988Z,1.54
2022-11-19T07:12:20.919Z,1.70
2022-11-19T07:14:49.964Z,1.45
2022-11-19T07:17:17.638Z,1.39
2022-11-19T07:19:45.308Z,1.73
2022-11-19T07:22:12.990Z,1.67
2022-11-19T07:24:40.704Z,1.73
2022-11-19T07:27:08.337Z,1.75
2022-11-19T07:29:36.301Z,1.67
2022-11-19T07:32:05.554Z,1.59
2022-11-19T07:34:33.181Z,1.39
2022-11-19T07:37:00.781Z,1.57
2022-11-19T07:39:28.923Z,1.57
2022-11-19T07:42:13.887Z,1.53
2022-11-19T07:44:41.581Z,1.70
2022-11-19T07:47:10.590Z,1.53
2022-11-19T07:49:38.283Z,1.46
2022-11-19T07:52:05.929Z,1.52
2022-11-19T07:54:33.622Z,1.61
2022-11-19T07:57:01.280Z,1.52
2022-11-19T07:59:28.833Z,1.64
2022-11-19T08:01:56.583Z,1.59
2022-11-19T08:04:25.480Z,1.25
2022-11-19T08:06:53.185Z,1.52
2022-11-19T08:09:21.342Z,1.28
2022-11-19T08:11:49.213Z,1.46
2022-11-19T08:14:16.960Z,1.29
2022-11-19T08:17:02.381Z,1.47
2022-11-19T08:19:31.498Z,1.47
2022-11-19T08:21:59.122Z,1.37
2022-11-19T08:24:26.987Z,1.46
2022-11-19T08:26:54.620Z,1.39
2022-11-19T08:29:23.788Z,1.38
2022-11-19T08:31:51.953Z,1.36
2022-11-19T08:34:19.944Z,1.39
2022-11-19T08:36:49.126Z,1.47
2022-11-19T08:39:16.872Z,1.41
2022-11-19T08:42:01.897Z,1.52
2022-11-19T08:44:29.575Z,1.36
2022-11-19T08:46:57.250Z,1.34
2022-11-19T08:49:24.808Z,1.24
2022-11-19T08:51:54.206Z,1.04
2022-11-19T08:54:22.366Z,1.29
2022-11-19T08:56:50.163Z,1.22
2022-11-19T08:59:18.023Z,1.38
2022-11-19T09:01:45.742Z,1.47
2022-11-19T09:04:13.506Z,1.49
2022-11-19T09:06:41.277Z,1.44
2022-11-19T09:09:10.488Z,1.23
2022-11-19T09:11:42.407Z,1.38
2022-11-19T09:14:11.075Z,1.32
2022-11-19T09:16:38.717Z,1.42
2022-11-19T09:19:06.379Z,1.48
2022-11-19T09:21:34.177Z,1.36
2022-11-19T09:24:01.899Z,1.48
2022-11-19T09:26:31.056Z,1.39
2022-11-19T09:28:59.073Z,1.40
2022-11-19T09:31:26.855Z,1.31
2022-11-19T09:33:55.420Z,1.15
2022-11-19T09:36:23.112Z,1.13
2022-11-19T09:38:50.707Z,1.09
2022-11-19T09:41:33.256Z,1.13
2022-11-19T09:44:12.065Z,1.28
2022-11-19T09:46:45.709Z,1.41
2022-11-19T09:49:18.358Z,1.45
2022-11-19T09:51:52.207Z,1.39
2022-11-19T09:54:21.409Z,1.33
2022-11-19T09:56:53.197Z,1.41
2022-11-19T09:59:25.982Z,1.35
2022-11-19T10:01:53.942Z,1.24
2022-11-19T10:04:23.767Z,1.15
2022-11-19T10:06:59.730Z,1.05
2022-11-19T10:09:42.756Z,1.09
2022-11-19T10:12:25.663Z,0.91
2022-11-19T10:15:06.064Z,1.04
2022-11-19T10:17:42.384Z,1.18
2022-11-19T10:20:17.842Z,1.31
2022-11-19T10:22:57.205Z,1.13
2022-11-19T10:25:28.453Z,1.37
2022-11-19T10:28:04.992Z,1.45
2022-11-19T10:30:32.753Z,1.25
2022-11-19T10:33:03.389Z,1.30
2022-11-19T10:35:33.676Z,1.18
2022-11-19T10:38:03.498Z,1.41
2022-11-19T10:40:34.377Z,1.24
2022-11-19T10:43:14.048Z,1.36
2022-11-19T10:45:41.758Z,1.23
2022-11-19T10:48:14.024Z,1.43
2022-11-19T10:50:42.456Z,1.43
2022-11-19T10:53:15.957Z,1.52
2022-11-19T10:55:50.045Z,1.59
2022-11-19T10:58:25.744Z,1.55
2022-11-19T11:00:54.978Z,1.50
2022-11-19T11:03:25.722Z,1.47
2022-11-19T11:05:58.485Z,1.55
2022-11-19T11:08:26.955Z,1.66
2022-11-19T11:10:54.681Z,1.55
2022-11-19T11:13:58.357Z,1.67
2022-11-19T11:16:31.596Z,1.75
2022-11-19T11:19:01.635Z,1.82
2022-11-19T11:21:35.893Z,1.57
2022-11-19T11:24:05.331Z,1.74
2022-11-19T11:26:35.214Z,1.65
2022-11-19T11:29:08.012Z,1.75
2022-11-19T11:31:40.613Z,1.85
2022-11-19T11:34:15.132Z,1.86
2022-11-19T11:36:43.979Z,1.69
2022-11-19T11:39:25.105Z,1.70
2022-11-19T11:42:05.369Z,1.79
2022-11-19T11:44:38.241Z,1.80
2022-11-19T11:47:12.568Z,1.56
2022-11-19T11:49:42.265Z,1.66
2022-11-19T11:52:21.251Z,1.51
2022-11-19T11:55:00.255Z,1.62
2022-11-19T11:57:29.647Z,1.69
2022-11-19T11:59:59.028Z,1.60
2022-11-19T12:02:30.399Z,1.57
2022-11-19T12:05:00.866Z,1.56
2022-11-19T12:07:44.754Z,1.45
2022-11-19T12:10:25.009Z,1.58
2022-11-19T12:13:03.272Z,1.60
2022-11-19T12:15:42.476Z,1.69
2022-11-19T12:18:17.178Z,1.43
2022-11-19T12:20:50.547Z,1.66
2022-11-19T12:23:29.484Z,1.57
2022-11-19T12:26:04.162Z,1.44
2022-11-19T12:28:45.932Z,1.45
2022-11-19T12:31:30.041Z,1.65
2022-11-19T12:34:23.137Z,1.45
2022-11-19T12:36:57.185Z,1.54
2022-11-19T12:39:33.958Z,1.59
2022-11-19T12:42:23.319Z,1.56
2022-11-19T12:44:56.925Z,1.60
2022-11-19T12:47:37.641Z,1.45
2022-11-19T12:50:17.690Z,1.29
2022-11-19T12:53:03.241Z,1.49
2022-11-19T12:55:37.629Z,1.41
2022-11-19T12:58:11.529Z,1.28
2022-11-19T13:00:43.722Z,1.61
2022-11-19T13:03:16.565Z,1.34
2022-11-19T13:05:50.755Z,1.55
2022-11-19T13:08:22.678Z,1.36
2022-11-19T13:10:52.920Z,1.54
2022-11-19T13:13:24.089Z,1.59
2022-11-19T13:15:57.456Z,1.60
2022-11-19T13:18:29.464Z,1.63
2022-11-19T13:20:59.212Z,1.64
2022-11-19T13:23:31.376Z,1.62
2022-11-19T13:26:02.283Z,1.70
2022-11-19T13:28:35.173Z,1.69
2022-11-19T13:31:07.874Z,1.57
2022-11-19T13:33:41.216Z,1.56
2022-11-19T13:36:15.752Z,1.59
2022-11-19T13:38:48.119Z,1.53
2022-11-19T13:41:18.453Z,1.47
2022-11-19T13:44:03.783Z,1.46
2022-11-19T13:46:35.788Z,1.48
2022-11-19T13:49:08.645Z,1.51
2022-11-19T13:51:39.529Z,1.69
2022-11-19T13:54:08.938Z,1.57
2022-11-19T13:56:44.339Z,1.59
2022-11-19T13:59:31.804Z,1.50
2022-11-19T14:02:38.525Z,1.48
2022-11-19T14:05:42.254Z,1.59
2022-11-19T14:08:21.169Z,1.50
2022-11-19T14:11:02.363Z,1.67
2022-11-19T14:13:46.590Z,1.57
2022-11-19T14:16:38.986Z,1.43
2022-11-19T14:19:26.021Z,1.45
2022-11-19T14:22:13.316Z,1.40
2022-11-19T14:25:11.525Z,1.48
2022-11-19T14:27:39.493Z,1.47
2022-11-19T14:30:09.691Z,1.35
2022-11-19T14:32:46.877Z,1.41
2022-11-19T14:35:38.857Z,1.34
2022-11-19T14:38:33.761Z,1.39
2022-11-19T14:41:08.167Z,1.40
2022-11-19T14:44:07.659Z,1.49
2022-11-19T14:46:35.697Z,1.25
2022-11-19T14:49:08.140Z,1.32
2022-11-19T14:51:37.113Z,1.36
2022-11-19T14:54:31.032Z,1.30
2022-11-19T14:57:05.579Z,1.45
2022-11-19T14:59:36.861Z,1.48
2022-11-19T15:02:12.469Z,1.45
2022-11-19T15:04:41.706Z,1.35
2022-11-19T15:07:10.642Z,1.43
2022-11-19T15:10:04.618Z,1.36
2022-11-19T15:12:45.863Z,1.35
2022-11-19T15:15:35.158Z,1.33
2022-11-19T15:18:14.363Z,1.35
2022-11-19T15:20:58.953Z,1.39
2022-11-19T15:23:32.605Z,1.40
2022-11-19T15:26:08.233Z,1.45
2022-11-19T15:28:44.792Z,1.35
2022-11-19T15:31:23.302Z,1.35
2022-11-19T15:34:49.219Z,1.42
2022-11-19T15:37:29.165Z,1.45
2022-11-19T15:39:58.292Z,1.40
2022-11-19T15:42:31.438Z,1.31
2022-11-19T15:45:03.163Z,1.36
2022-11-19T15:47:38.072Z,1.34
2022-11-19T15:50:07.092Z,1.30
2022-11-19T15:52:34.733Z,1.14
2022-11-19T15:55:12.677Z,1.13
2022-11-19T15:57:45.526Z,1.01
2022-11-19T16:00:18.561Z,0.90
2022-11-19T16:02:47.941Z,0.89
2022-11-19T16:05:21.127Z,0.84
2022-11-19T16:07:49.732Z,0.81
2022-11-19T16:10:22.047Z,0.63
2022-11-19T16:13:16.438Z,0.61
2022-11-19T16:16:09.188Z,0.66
2022-11-19T16:18:46.200Z,0.58
2022-11-19T16:21:15.361Z,0.46
2022-11-19T16:24:03.022Z,0.59
2022-11-19T16:26:30.863Z,0.59
2022-11-19T16:29:02.203Z,0.55
2022-11-19T16:31:31.406Z,0.43
2022-11-19T16:33:59.540Z,0.44
2022-11-19T16:36:29.835Z,0.50
2022-11-19T16:38:58.221Z,0.48
2022-11-19T16:41:58.426Z,0.52
2022-11-19T16:44:29.956Z,0.57
2022-11-19T16:46:57.726Z,0.69
2022-11-19T16:49:32.193Z,0.51
2022-11-19T16:52:00.505Z,0.65
2022-11-19T16:54:46.200Z,0.53
2022-11-19T16:57:15.148Z,0.55
2022-11-19T16:59:47.338Z,0.58
2022-11-19T17:02:16.897Z,0.55
2022-11-19T17:04:48.945Z,0.57
2022-11-19T17:07:22.465Z,0.52
2022-11-19T17:09:50.383Z,0.56
2022-11-19T17:12:27.415Z,0.70
2022-11-19T17:15:00.759Z,0.74
2022-11-19T17:17:40.353Z,0.72
2022-11-19T17:20:51.075Z,0.77
2022-11-19T17:23:20.233Z,0.59
2022-11-19T17:25:49.715Z,0.68
2022-11-19T17:28:20.055Z,0.78
2022-11-19T17:30:50.565Z,0.77
2022-11-19T17:33:19.439Z,0.77
2022-11-19T17:35:48.780Z,0.81
2022-11-19T17:38:18.554Z,0.78
2022-11-19T17:40:47.929Z,0.70
2022-11-19T17:43:34.610Z,0.67
2022-11-19T17:46:03.780Z,0.68
2022-11-19T17:48:31.355Z,0.77
2022-11-19T17:50:58.998Z,0.83
2022-11-19T17:53:26.861Z,0.67
2022-11-19T17:55:56.327Z,0.69
2022-11-19T17:58:23.980Z,0.72
2022-11-19T18:00:51.600Z,0.79
2022-11-19T18:03:20.595Z,0.78
2022-11-19T18:05:49.651Z,0.78
2022-11-19T18:08:17.559Z,0.79
2022-11-19T18:10:47.015Z,0.94
2022-11-19T18:13:18.313Z,0.67
2022-11-19T18:15:45.963Z,0.83
2022-11-19T18:18:13.600Z,0.88
2022-11-19T18:20:42.666Z,0.94
2022-11-19T18:23:13.122Z,0.88
2022-11-19T18:25:41.192Z,0.87
2022-11-19T18:28:08.877Z,0.95
2022-11-19T18:30:36.903Z,0.92
2022-11-19T18:33:04.826Z,0.94
2022-11-19T18:35:33.009Z,0.92
2022-11-19T18:38:01.964Z,0.87
2022-11-19T18:40:29.585Z,1.00
2022-11-19T18:43:14.594Z,0.91
2022-11-19T18:45:42.172Z,0.91
2022-11-19T18:48:09.841Z,0.99
2022-11-19T18:50:37.552Z,1.02
2022-11-19T18:53:06.405Z,1.03
2022-11-19T18:55:34.016Z,0.94
2022-11-19T18:58:01.645Z,0.94
2022-11-19T19:00:29.295Z,0.95
2022-11-19T19:02:56.873Z,1.02
2022-11-19T19:05:24.638Z,0.92
2022-11-19T19:07:52.348Z,0.95
2022-11-19T19:10:21.298Z,0.98
2022-11-19T19:12:47.876Z,1.00
2022-11-19T19:15:15.539Z,1.11
2022-11-19T19:17:43.225Z,0.96
2022-11-19T19:20:11.853Z,1.07
2022-11-19T19:22:39.537Z,1.17
2022-11-19T19:25:08.158Z,1.13
2022-11-19T19:27:37.195Z,1.08
2022-11-19T19:30:05.850Z,1.06
2022-11-19T19:32:33.511Z,1.02
2022-11-19T19:35:01.144Z,1.01
2022-11-19T19:37:28.715Z,1.07
2022-11-19T19:39:56.418Z,1.01
2022-11-19T19:42:24.005Z,0.99
2022-11-19T19:44:53.027Z,1.04
2022-11-19T19:47:20.728Z,1.18
2022-11-19T19:49:48.619Z,1.06
2022-11-19T19:52:16.282Z,1.03
2022-11-19T19:54:44.090Z,0.95
2022-11-19T19:57:11.926Z,1.01
2022-11-19T19:59:39.655Z,0.98
2022-11-19T20:02:10.425Z,1.04
2022-11-19T20:04:38.168Z,1.04
2022-11-19T20:07:05.811Z,1.02
2022-11-19T20:09:33.523Z,1.04
2022-11-19T20:12:01.181Z,1.02
2022-11-19T20:14:28.835Z,1.04
2022-11-19T20:16:56.465Z,1.08
2022-11-19T20:19:25.668Z,1.01
2022-11-19T20:21:54.416Z,0.99
2022-11-19T20:24:22.647Z,1.02
2022-11-19T20:26:50.405Z,1.15
2022-11-19T20:29:20.410Z,1.08
2022-11-19T20:31:49.181Z,1.22
2022-11-19T20:34:17.312Z,1.09
2022-11-19T20:36:46.584Z,1.10
2022-11-19T20:39:14.183Z,1.09
2022-11-19T20:41:59.601Z,0.95
2022-11-19T20:44:27.430Z,1.12
2022-11-19T20:46:56.184Z,1.02
2022-11-19T20:49:25.665Z,1.09
2022-11-19T20:51:55.245Z,1.20
2022-11-19T20:54:23.649Z,1.22
2022-11-19T20:56:52.653Z,1.08
2022-11-19T20:59:21.298Z,1.09
2022-11-19T21:01:49.577Z,1.04
2022-11-19T21:04:17.522Z,1.01
2022-11-19T21:06:45.662Z,1.03
2022-11-19T21:09:16.422Z,1.04
2022-11-19T21:11:44.121Z,0.98
2022-11-19T21:14:11.916Z,1.05
2022-11-19T21:16:39.619Z,1.12
2022-11-19T21:19:07.344Z,1.09
2022-11-19T21:21:35.342Z,1.13
2022-11-19T21:24:03.348Z,1.19
2022-11-19T21:26:32.497Z,1.12
2022-11-19T21:29:00.697Z,1.14
2022-11-19T21:31:38.443Z,1.19
2022-11-19T21:34:07.095Z,1.15
2022-11-19T21:36:35.114Z,1.08
2022-11-19T21:39:03.003Z,0.93
2022-11-19T21:41:32.066Z,0.94
2022-11-19T21:44:00.108Z,0.71
2022-11-19T21:46:27.791Z,0.94
2022-11-19T21:48:55.489Z,1.00
2022-11-19T21:51:25.142Z,0.91
2022-11-19T21:53:54.617Z,1.02
2022-11-19T21:56:22.327Z,1.05
2022-11-19T21:58:51.300Z,0.90
2022-11-19T22:01:19.193Z,1.03
2022-11-19T22:03:47.285Z,0.97
2022-11-19T22:06:14.956Z,1.03
2022-11-19T22:08:43.145Z,1.02
2022-11-19T22:11:30.485Z,0.99
2022-11-19T22:14:01.783Z,1.18
2022-11-19T22:16:30.041Z,1.11
2022-11-19T22:18:57.763Z,1.04
2022-11-19T22:21:26.381Z,0.87
2022-11-19T22:23:54.154Z,1.01
2022-11-19T22:26:21.824Z,1.15
2022-11-19T22:28:49.518Z,1.10
2022-11-19T22:31:18.741Z,1.09
2022-11-19T22:33:47.719Z,1.07
2022-11-19T22:36:15.747Z,1.03
2022-11-19T22:38:43.515Z,1.06
2022-11-19T22:41:12.509Z,1.00
2022-11-19T22:43:40.977Z,0.98
2022-11-19T22:46:09.881Z,0.96
2022-11-19T22:48:39.204Z,0.91
2022-11-19T22:51:08.595Z,0.93
2022-11-19T22:53:36.658Z,1.03
2022-11-19T22:56:05.188Z,1.05
2022-11-19T22:58:33.234Z,1.08
2022-11-19T23:01:01.017Z,1.13
2022-11-19T23:03:28.910Z,1.02
2022-11-19T23:05:59.276Z,1.06
2022-11-19T23:08:27.079Z,0.94
2022-11-19T23:10:58.489Z,0.84
2022-11-19T23:13:34.278Z,0.94
2022-11-19T23:16:04.863Z,0.91
2022-11-19T23:18:34.937Z,0.91
2022-11-19T23:21:06.659Z,0.92
2022-11-19T23:23:34.470Z,0.83
2022-11-19T23:26:03.273Z,0.67
2022-11-19T23:28:32.433Z,0.73
2022-11-19T23:31:03.850Z,0.81
2022-11-19T23:33:31.669Z,0.86
2022-11-19T23:36:04.317Z,0.86
2022-11-19T23:38:32.009Z,0.76
2022-11-19T23:41:00.164Z,0.80
2022-11-19T23:43:28.408Z,0.83
2022-11-19T23:45:57.610Z,0.77
2022-11-19T23:48:25.578Z,0.69
2022-11-19T23:50:53.285Z,0.80
2022-11-19T23:53:22.299Z,0.75
2022-11-19T23:55:50.021Z,0.84
2022-11-19T23:58:17.609Z,0.91
